createdAt,value
2017-11-15T00:00:55.146Z,35.55
2017-11-15T00:01:57.609Z,28.90
2017-11-15T00:03:00.139Z,29.02
2017-11-15T00:04:02.618Z,27.13
2017-11-15T00:05:05.134Z,29.85
2017-11-15T00:06:07.724Z,34.42
2017-11-15T00:07:11.130Z,27.87
2017-11-15T00:08:13.691Z,29.25
2017-11-15T00:09:16.220Z,30.98
2017-11-15T00:10:18.742Z,26.33
2017-11-15T00:11:21.252Z,28.33
2017-11-15T00:12:24.603Z,24.52
2017-11-15T00:13:27.153Z,31.62
2017-11-15T00:14:29.749Z,27.58
2017-11-15T00:15:32.975Z,36.38
2017-11-15T00:16:36.252Z,29.00
2017-11-15T00:17:38.737Z,26.65
2017-11-15T00:18:41.920Z,26.05
2017-11-15T00:19:44.392Z,29.75
2017-11-15T00:20:46.863Z,28.65
2017-11-15T00:21:49.394Z,31.42
2017-11-15T00:22:51.859Z,36.17
2017-11-15T00:23:54.349Z,32.10
2017-11-15T00:24:56.864Z,34.03
2017-11-15T00:25:59.436Z,28.33
2017-11-15T00:27:01.894Z,29.65
2017-11-15T00:28:05.148Z,33.05
2017-11-15T00:29:08.380Z,29.83
2017-11-15T00:30:11.743Z,30.60
2017-11-15T00:31:14.219Z,27.42
2017-11-15T00:32:16.804Z,25.85
2017-11-15T00:33:20.119Z,36.03
2017-11-15T00:34:23.398Z,29.17
2017-11-15T00:35:25.882Z,24.95
2017-11-15T00:36:29.135Z,30.00
2017-11-15T00:37:32.379Z,26.08
2017-11-15T00:38:35.839Z,31.12
2017-11-15T00:39:38.418Z,28.73
2017-11-15T00:40:41.042Z,32.67
2017-11-15T00:41:44.339Z,36.38
2017-11-15T00:42:46.807Z,28.83
2017-11-15T00:43:49.316Z,29.85
2017-11-15T00:44:51.780Z,32.22
2017-11-15T00:45:54.600Z,24.42
2017-11-15T00:46:57.104Z,26.98
2017-11-15T00:47:59.598Z,26.52
2017-11-15T00:49:02.083Z,30.10
2017-11-15T00:50:04.566Z,25.90
2017-11-15T00:51:07.048Z,27.65
2017-11-15T00:52:10.295Z,30.27
2017-11-15T00:53:12.845Z,23.90
2017-11-15T00:54:16.104Z,20.65
2017-11-15T00:55:18.588Z,25.48
2017-11-15T00:56:21.855Z,27.87
2017-11-15T00:57:24.317Z,27.33
2017-11-15T00:58:26.913Z,28.42
2017-11-15T00:59:29.404Z,32.97
2017-11-15T01:00:32.670Z,31.77
2017-11-15T01:01:35.165Z,30.65
2017-11-15T01:02:38.112Z,27.55
2017-11-15T01:03:41.338Z,27.23
2017-11-15T01:04:43.836Z,29.52
2017-11-15T01:05:46.310Z,24.70
2017-11-15T01:06:49.543Z,30.08
2017-11-15T01:07:52.807Z,24.45
2017-11-15T01:08:55.347Z,26.23
2017-11-15T01:09:57.847Z,29.10
2017-11-15T01:11:01.087Z,25.27
2017-11-15T01:12:04.333Z,26.35
2017-11-15T01:13:07.587Z,28.70
2017-11-15T01:14:10.064Z,29.60
2017-11-15T01:15:12.537Z,25.60
2017-11-15T01:16:15.029Z,24.52
2017-11-15T01:17:17.599Z,19.73
2017-11-15T01:18:20.125Z,25.35
2017-11-15T01:19:22.588Z,26.77
2017-11-15T01:20:25.189Z,26.23
2017-11-15T01:21:28.354Z,27.45
2017-11-15T01:22:30.898Z,25.88
2017-11-15T01:23:34.894Z,25.40
2017-11-15T01:24:37.357Z,30.05
2017-11-15T01:25:39.824Z,31.98
2017-11-15T01:26:43.095Z,28.45
2017-11-15T01:27:45.590Z,26.15
2017-11-15T01:28:48.854Z,27.50
2017-11-15T01:29:51.319Z,33.03
2017-11-15T01:30:53.794Z,27.42
2017-11-15T01:31:57.072Z,23.42
2017-11-15T01:32:59.563Z,23.12
2017-11-15T01:34:02.800Z,26.42
2017-11-15T01:35:06.019Z,25.75
2017-11-15T01:36:08.535Z,31.42
2017-11-15T01:37:11.003Z,29.80
2017-11-15T01:38:13.494Z,26.70
2017-11-15T01:39:16.174Z,26.00
2017-11-15T01:40:18.685Z,25.77
2017-11-15T01:41:21.162Z,30.83
2017-11-15T01:42:23.658Z,26.17
2017-11-15T01:43:26.139Z,27.20
2017-11-15T01:44:29.367Z,25.25
2017-11-15T01:45:31.831Z,30.33
2017-11-15T01:46:34.297Z,28.50
2017-11-15T01:47:36.781Z,26.90
2017-11-15T01:48:39.271Z,25.65
2017-11-15T01:49:41.763Z,30.50
2017-11-15T01:50:44.212Z,28.33
2017-11-15T01:51:46.687Z,28.40
2017-11-15T01:52:49.151Z,30.88
2017-11-15T01:53:51.632Z,34.63
2017-11-15T01:54:54.129Z,31.42
2017-11-15T01:55:57.589Z,27.02
2017-11-15T01:57:00.820Z,26.70
2017-11-15T01:58:04.034Z,30.92
2017-11-15T01:59:06.486Z,27.65
2017-11-15T02:00:09.800Z,29.02
2017-11-15T02:01:14.192Z,28.50
2017-11-15T02:02:17.477Z,29.17
2017-11-15T02:03:19.936Z,34.10
2017-11-15T02:04:22.405Z,33.95
2017-11-15T02:05:24.943Z,26.12
2017-11-15T02:06:27.455Z,31.33
2017-11-15T02:07:29.924Z,32.05
2017-11-15T02:08:32.414Z,31.40
2017-11-15T02:09:34.903Z,31.45
2017-11-15T02:10:38.163Z,32.55
2017-11-15T02:11:41.408Z,32.15
2017-11-15T02:12:43.922Z,28.48
2017-11-15T02:13:47.153Z,31.98
2017-11-15T02:14:50.397Z,25.62
2017-11-15T02:15:53.636Z,26.23
2017-11-15T02:16:56.095Z,26.87
2017-11-15T02:17:58.583Z,35.95
2017-11-15T02:19:01.141Z,30.42
2017-11-15T02:20:04.404Z,35.58
2017-11-15T02:21:06.870Z,26.00
2017-11-15T02:22:09.336Z,32.05
2017-11-15T02:23:11.799Z,29.58
2017-11-15T02:24:14.289Z,28.85
2017-11-15T02:25:17.538Z,32.25
2017-11-15T02:26:20.068Z,28.50
2017-11-15T02:27:22.584Z,31.85
2017-11-15T02:28:25.044Z,27.35
2017-11-15T02:29:27.536Z,34.42
2017-11-15T02:30:30.054Z,32.08
2017-11-15T02:31:33.311Z,33.55
2017-11-15T02:32:35.828Z,37.33
2017-11-15T02:33:38.286Z,37.60
2017-11-15T02:34:40.747Z,29.33
2017-11-15T02:35:43.979Z,39.53
2017-11-15T02:36:46.472Z,32.47
2017-11-15T02:37:48.939Z,26.95
2017-11-15T02:38:51.450Z,33.00
2017-11-15T02:39:53.923Z,32.72
2017-11-15T02:40:56.391Z,38.10
2017-11-15T02:41:58.867Z,34.22
2017-11-15T02:43:01.508Z,32.42
2017-11-15T02:44:03.983Z,34.47
2017-11-15T02:45:06.469Z,38.38
2017-11-15T02:46:08.931Z,35.08
2017-11-15T02:47:11.434Z,35.70
2017-11-15T02:48:13.968Z,36.67
2017-11-15T02:49:16.456Z,35.20
2017-11-15T02:50:18.954Z,35.40
2017-11-15T02:51:22.208Z,36.55
2017-11-15T02:52:25.498Z,36.83
2017-11-15T02:53:28.032Z,35.60
2017-11-15T02:54:30.493Z,38.60
2017-11-15T02:55:33.968Z,40.88
2017-11-15T02:56:36.493Z,37.67
2017-11-15T02:57:41.988Z,44.55
2017-11-15T02:58:44.451Z,41.45
2017-11-15T02:59:47.014Z,44.55
2017-11-15T03:00:50.270Z,38.95
2017-11-15T03:01:52.768Z,40.75
2017-11-15T03:02:55.234Z,43.45
2017-11-15T03:03:57.711Z,38.28
2017-11-15T03:05:00.181Z,43.25
2017-11-15T03:06:02.659Z,43.83
2017-11-15T03:07:05.155Z,40.75
2017-11-15T03:08:07.804Z,41.97
2017-11-15T03:09:10.325Z,44.55
2017-11-15T03:10:12.856Z,50.72
2017-11-15T03:11:15.321Z,55.03
2017-11-15T03:12:17.781Z,50.17
2017-11-15T03:13:20.282Z,50.55
2017-11-15T03:14:22.768Z,48.72
2017-11-15T03:15:25.229Z,54.58
2017-11-15T03:16:27.700Z,51.50
2017-11-15T03:17:30.993Z,57.00
2017-11-15T03:18:33.438Z,51.63
2017-11-15T03:19:35.987Z,53.83
2017-11-15T03:20:38.463Z,50.60
2017-11-15T03:21:41.712Z,52.45
2017-11-15T03:22:44.200Z,55.45
2017-11-15T03:23:46.664Z,58.58
2017-11-15T03:24:49.871Z,51.45
2017-11-15T03:25:52.327Z,55.47
2017-11-15T03:26:54.795Z,55.33
2017-11-15T03:27:57.267Z,55.90
2017-11-15T03:29:00.513Z,54.72
2017-11-15T03:30:02.994Z,62.40
2017-11-15T03:31:05.498Z,52.17
2017-11-15T03:32:07.962Z,57.85
2017-11-15T03:33:10.428Z,58.63
2017-11-15T03:34:12.908Z,63.00
2017-11-15T03:35:15.379Z,57.15
2017-11-15T03:36:17.904Z,58.60
2017-11-15T03:37:20.415Z,62.83
2017-11-15T03:38:22.900Z,54.47
2017-11-15T03:39:25.491Z,54.45
2017-11-15T03:40:27.949Z,56.78
2017-11-15T03:41:30.435Z,61.15
2017-11-15T03:42:32.985Z,61.37
2017-11-15T03:43:35.463Z,58.50
2017-11-15T03:44:38.696Z,55.92
2017-11-15T03:45:41.924Z,61.92
2017-11-15T03:46:44.465Z,55.03
2017-11-15T03:47:47.711Z,60.65
2017-11-15T03:48:50.975Z,57.83
2017-11-15T03:49:53.426Z,58.03
2017-11-15T03:50:55.882Z,63.30
2017-11-15T03:51:58.342Z,57.72
2017-11-15T03:53:00.806Z,54.90
2017-11-15T03:54:03.284Z,54.45
2017-11-15T03:55:06.526Z,63.72
2017-11-15T03:56:10.459Z,72.53
2017-11-15T03:57:14.861Z,54.08
2017-11-15T03:58:18.091Z,61.45
2017-11-15T03:59:21.323Z,60.60
2017-11-15T04:00:23.872Z,50.55
2017-11-15T04:01:26.402Z,66.05
2017-11-15T04:02:28.871Z,52.40
2017-11-15T04:03:31.346Z,57.03
2017-11-15T04:04:33.894Z,59.80
2017-11-15T04:05:36.365Z,56.85
2017-11-15T04:06:38.888Z,54.65
2017-11-15T04:07:41.447Z,54.33
2017-11-15T04:08:44.694Z,51.35
2017-11-15T04:09:47.162Z,50.95
2017-11-15T04:10:49.625Z,63.35
2017-11-15T04:11:52.900Z,53.70
2017-11-15T04:12:55.412Z,54.88
2017-11-15T04:13:58.635Z,62.75
2017-11-15T04:15:01.872Z,56.88
2017-11-15T04:16:04.334Z,56.00
2017-11-15T04:17:06.851Z,58.90
2017-11-15T04:18:09.371Z,59.15
2017-11-15T04:19:11.895Z,61.60
2017-11-15T04:20:14.588Z,56.70
2017-11-15T04:21:17.074Z,57.42
2017-11-15T04:22:19.625Z,59.30
2017-11-15T04:23:22.098Z,57.17
2017-11-15T04:24:25.344Z,56.70
2017-11-15T04:25:27.797Z,51.83
2017-11-15T04:26:30.272Z,49.05
2017-11-15T04:27:33.501Z,51.78
2017-11-15T04:28:35.971Z,49.85
2017-11-15T04:29:38.486Z,49.92
2017-11-15T04:30:40.969Z,52.80
2017-11-15T04:31:43.439Z,49.17
2017-11-15T04:32:45.932Z,63.95
2017-11-15T04:33:48.395Z,51.05
2017-11-15T04:34:50.905Z,48.35
2017-11-15T04:35:54.172Z,49.45
2017-11-15T04:36:56.636Z,49.10
2017-11-15T04:37:59.144Z,49.50
2017-11-15T04:39:01.615Z,47.75
2017-11-15T04:40:04.855Z,58.05
2017-11-15T04:41:08.076Z,48.65
2017-11-15T04:42:10.548Z,51.65
2017-11-15T04:43:13.018Z,41.95
2017-11-15T04:44:15.487Z,55.05
2017-11-15T04:45:18.295Z,48.08
2017-11-15T04:46:20.826Z,46.85
2017-11-15T04:47:24.074Z,46.08
2017-11-15T04:48:27.294Z,48.08
2017-11-15T04:49:29.748Z,57.00
2017-11-15T04:50:33.072Z,49.08
2017-11-15T04:51:35.547Z,44.60
2017-11-15T04:52:38.015Z,50.00
2017-11-15T04:53:40.494Z,45.80
2017-11-15T04:54:42.954Z,49.55
2017-11-15T04:55:45.557Z,43.83
2017-11-15T04:56:48.008Z,46.13
2017-11-15T04:57:50.479Z,43.75
2017-11-15T04:58:52.951Z,46.90
2017-11-15T04:59:55.420Z,48.38
2017-11-15T05:00:58.691Z,46.17
2017-11-15T05:02:01.163Z,51.65
2017-11-15T05:03:04.406Z,46.25
2017-11-15T05:04:07.633Z,47.03
2017-11-15T05:05:10.195Z,44.28
2017-11-15T05:06:12.775Z,51.92
2017-11-15T05:07:15.234Z,39.85
2017-11-15T05:08:18.500Z,42.88
2017-11-15T05:09:20.967Z,45.35
2017-11-15T05:10:23.423Z,46.60
2017-11-15T05:11:26.125Z,48.30
2017-11-15T05:12:28.574Z,45.67
2017-11-15T05:13:31.048Z,44.78
2017-11-15T05:14:33.546Z,51.78
2017-11-15T05:15:36.775Z,44.75
2017-11-15T05:16:40.007Z,41.75
2017-11-15T05:17:42.548Z,44.10
2017-11-15T05:18:45.823Z,49.15
2017-11-15T05:19:48.347Z,45.05
2017-11-15T05:20:50.836Z,39.70
2017-11-15T05:21:54.247Z,49.60
2017-11-15T05:22:57.113Z,39.03
2017-11-15T05:23:59.594Z,41.28
2017-11-15T05:25:02.085Z,34.60
2017-11-15T05:26:04.608Z,41.78
2017-11-15T05:27:07.123Z,42.58
2017-11-15T05:28:10.334Z,42.17
2017-11-15T05:29:12.808Z,35.72
2017-11-15T05:30:15.272Z,50.97
2017-11-15T05:31:17.734Z,39.25
2017-11-15T05:32:20.217Z,42.55
2017-11-15T05:33:22.681Z,44.75
2017-11-15T05:34:25.947Z,42.78
2017-11-15T05:35:28.415Z,38.90
2017-11-15T05:36:30.886Z,42.17
2017-11-15T05:37:34.166Z,43.55
2017-11-15T05:38:36.623Z,44.60
2017-11-15T05:39:39.082Z,38.00
2017-11-15T05:40:42.339Z,44.75
2017-11-15T05:41:45.659Z,42.00
2017-11-15T05:42:48.906Z,41.35
2017-11-15T05:43:52.137Z,47.90
2017-11-15T05:44:55.404Z,37.17
2017-11-15T05:45:57.870Z,39.03
2017-11-15T05:47:00.404Z,39.80
2017-11-15T05:48:02.906Z,38.58
2017-11-15T05:49:05.382Z,44.50
2017-11-15T05:50:08.619Z,35.90
2017-11-15T05:51:11.120Z,39.28
2017-11-15T05:52:13.588Z,35.75
2017-11-15T05:53:16.085Z,34.00
2017-11-15T05:54:18.569Z,46.13
2017-11-15T05:55:21.037Z,36.10
2017-11-15T05:56:23.522Z,39.30
2017-11-15T05:57:25.999Z,45.30
2017-11-15T05:58:29.352Z,42.03
2017-11-15T05:59:31.820Z,39.70
2017-11-15T06:00:34.312Z,37.28
2017-11-15T06:01:36.849Z,37.08
2017-11-15T06:02:39.324Z,38.53
2017-11-15T06:03:41.806Z,41.08
2017-11-15T06:04:44.258Z,35.63
2017-11-15T06:05:46.838Z,39.33
2017-11-15T06:06:49.306Z,37.90
2017-11-15T06:07:51.767Z,34.90
2017-11-15T06:08:55.037Z,37.95
2017-11-15T06:09:57.580Z,43.15
2017-11-15T06:11:00.100Z,38.97
2017-11-15T06:12:02.544Z,40.83
2017-11-15T06:13:04.991Z,39.03
2017-11-15T06:14:07.569Z,36.58
2017-11-15T06:15:10.057Z,38.47
2017-11-15T06:16:12.538Z,42.60
2017-11-15T06:17:15.788Z,51.53
2017-11-15T06:18:18.353Z,38.28
2017-11-15T06:19:21.634Z,40.20
2017-11-15T06:20:24.122Z,36.90
2017-11-15T06:21:26.640Z,40.08
2017-11-15T06:22:29.127Z,46.83
2017-11-15T06:23:31.495Z,40.63
2017-11-15T06:24:34.759Z,43.38
2017-11-15T06:25:38.031Z,37.95
2017-11-15T06:26:40.518Z,39.50
2017-11-15T06:27:43.884Z,44.28
2017-11-15T06:28:46.310Z,39.03
2017-11-15T06:29:48.723Z,42.67
2017-11-15T06:30:52.060Z,41.30
2017-11-15T06:31:55.321Z,40.00
2017-11-15T06:32:57.695Z,42.67
2017-11-15T06:34:00.175Z,42.17
2017-11-15T06:35:02.801Z,38.08
2017-11-15T06:36:05.224Z,42.55
2017-11-15T06:37:07.744Z,45.10
2017-11-15T06:38:10.164Z,36.60
2017-11-15T06:39:12.634Z,39.17
2017-11-15T06:40:15.207Z,43.17
2017-11-15T06:41:17.749Z,41.50
2017-11-15T06:42:20.273Z,42.60
2017-11-15T06:43:22.736Z,44.45
2017-11-15T06:44:25.605Z,41.95
2017-11-15T06:45:28.826Z,47.78
2017-11-15T06:46:31.315Z,39.92
2017-11-15T06:47:33.800Z,48.15
2017-11-15T06:48:37.914Z,42.40
2017-11-15T06:49:40.377Z,44.22
2017-11-15T06:50:43.603Z,48.47
2017-11-15T06:51:46.072Z,41.40
2017-11-15T06:52:48.563Z,42.83
2017-11-15T06:53:51.787Z,44.90
2017-11-15T06:54:54.270Z,41.50
2017-11-15T06:55:56.728Z,42.95
2017-11-15T06:56:59.198Z,50.85
2017-11-15T06:58:02.445Z,43.78
2017-11-15T06:59:04.903Z,43.50
2017-11-15T07:00:07.377Z,41.65
2017-11-15T07:01:10.657Z,43.60
2017-11-15T07:02:13.159Z,49.92
2017-11-15T07:03:15.601Z,40.90
2017-11-15T07:04:18.066Z,44.97
2017-11-15T07:05:20.533Z,43.30
2017-11-15T07:06:23.880Z,42.78
2017-11-15T07:07:27.110Z,41.33
2017-11-15T07:08:30.470Z,46.37
2017-11-15T07:09:32.935Z,39.30
2017-11-15T07:10:35.398Z,37.40
2017-11-15T07:11:38.660Z,44.08
2017-11-15T07:12:41.173Z,40.65
2017-11-15T07:13:43.665Z,49.00
2017-11-15T07:14:46.178Z,40.50
2017-11-15T07:15:48.646Z,44.92
2017-11-15T07:16:51.900Z,45.40
2017-11-15T07:17:55.256Z,46.30
2017-11-15T07:18:57.751Z,51.00
2017-11-15T07:20:00.985Z,46.22
2017-11-15T07:21:03.526Z,44.35
2017-11-15T07:22:06.789Z,51.78
2017-11-15T07:23:09.259Z,40.88
2017-11-15T07:24:11.745Z,42.08
2017-11-15T07:25:14.263Z,49.50
2017-11-15T07:26:16.764Z,50.15
2017-11-15T07:27:19.219Z,45.35
2017-11-15T07:28:21.689Z,43.67
2017-11-15T07:29:24.136Z,47.83
2017-11-15T07:30:27.410Z,47.67
2017-11-15T07:31:29.906Z,47.83
2017-11-15T07:32:33.138Z,45.78
2017-11-15T07:33:35.703Z,46.85
2017-11-15T07:34:38.174Z,46.30
2017-11-15T07:35:40.656Z,44.47
2017-11-15T07:36:43.143Z,43.70
2017-11-15T07:37:45.616Z,52.28
2017-11-15T07:38:48.081Z,51.10
2017-11-15T07:39:50.550Z,50.33
2017-11-15T07:40:53.043Z,50.03
2017-11-15T07:41:55.536Z,54.50
2017-11-15T07:42:58.026Z,60.92
2017-11-15T07:44:00.504Z,49.85
2017-11-15T07:45:02.970Z,52.30
2017-11-15T07:46:05.432Z,57.22
2017-11-15T07:47:07.931Z,48.40
2017-11-15T07:48:10.417Z,53.92
2017-11-15T07:49:13.688Z,46.67
2017-11-15T07:50:16.919Z,46.90
2017-11-15T07:51:20.205Z,53.10
2017-11-15T07:52:22.655Z,52.05
2017-11-15T07:53:25.143Z,55.63
2017-11-15T07:54:27.607Z,46.97
2017-11-15T07:55:30.063Z,52.20
2017-11-15T07:56:33.317Z,47.58
2017-11-15T07:57:35.786Z,53.20
2017-11-15T07:58:38.283Z,53.08
2017-11-15T07:59:40.751Z,56.60
2017-11-15T08:00:43.215Z,43.80
2017-11-15T08:01:45.681Z,48.28
2017-11-15T08:02:48.143Z,50.60
2017-11-15T08:03:51.366Z,50.17
2017-11-15T08:04:53.856Z,54.95
2017-11-15T08:05:56.324Z,52.97
2017-11-15T08:06:58.788Z,53.13
2017-11-15T08:08:01.245Z,47.60
2017-11-15T08:09:03.700Z,44.65
2017-11-15T08:10:06.959Z,48.85
2017-11-15T08:11:10.196Z,51.13
2017-11-15T08:12:13.411Z,54.20
2017-11-15T08:13:15.886Z,49.72
2017-11-15T08:14:18.366Z,46.85
2017-11-15T08:15:20.850Z,53.05
2017-11-15T08:16:23.347Z,50.90
2017-11-15T08:17:25.829Z,50.28
2017-11-15T08:18:28.291Z,56.20
2017-11-15T08:19:31.540Z,50.85
2017-11-15T08:20:34.015Z,47.45
2017-11-15T08:21:36.508Z,53.75
2017-11-15T08:22:38.974Z,55.45
2017-11-15T08:23:41.440Z,45.42
2017-11-15T08:24:43.927Z,52.00
2017-11-15T08:25:46.500Z,56.22
2017-11-15T08:26:48.974Z,47.92
2017-11-15T08:27:51.541Z,49.10
2017-11-15T08:28:54.792Z,51.53
2017-11-15T08:29:57.292Z,55.95
2017-11-15T08:30:59.751Z,50.88
2017-11-15T08:32:02.263Z,55.85
2017-11-15T08:33:04.785Z,48.38
2017-11-15T08:34:08.012Z,56.78
2017-11-15T08:35:11.281Z,46.78
2017-11-15T08:36:13.827Z,53.87
2017-11-15T08:37:16.306Z,43.80
2017-11-15T08:38:19.828Z,50.92
2017-11-15T08:39:22.293Z,47.83
2017-11-15T08:40:25.568Z,49.88
2017-11-15T08:41:28.057Z,46.00
2017-11-15T08:42:31.288Z,56.22
2017-11-15T08:43:34.534Z,50.38
2017-11-15T08:44:37.749Z,50.33
2017-11-15T08:45:40.322Z,44.88
2017-11-15T08:46:42.812Z,44.17
2017-11-15T08:47:45.276Z,49.85
2017-11-15T08:48:47.751Z,47.67
2017-11-15T08:49:50.207Z,45.63
2017-11-15T08:50:53.457Z,47.35
2017-11-15T08:51:56.677Z,41.42
2017-11-15T08:52:59.131Z,46.97
2017-11-15T08:54:01.592Z,54.60
2017-11-15T08:55:04.067Z,51.47
2017-11-15T08:56:07.423Z,47.47
2017-11-15T08:57:09.875Z,41.40
2017-11-15T08:58:12.355Z,45.60
2017-11-15T08:59:15.620Z,42.05
2017-11-15T09:00:18.087Z,47.42
2017-11-15T09:01:20.567Z,47.65
2017-11-15T09:02:23.035Z,46.85
2017-11-15T09:03:25.523Z,48.75
2017-11-15T09:04:27.988Z,46.03
2017-11-15T09:05:30.508Z,47.10
2017-11-15T09:06:32.969Z,47.58
2017-11-15T09:07:36.193Z,41.83
2017-11-15T09:08:38.679Z,43.97
2017-11-15T09:09:41.133Z,43.05
2017-11-15T09:10:43.710Z,44.15
2017-11-15T09:11:46.179Z,44.42
2017-11-15T09:12:48.663Z,40.45
2017-11-15T09:13:51.147Z,38.22
2017-11-15T09:14:53.619Z,52.65
2017-11-15T09:15:56.091Z,39.63
2017-11-15T09:16:58.663Z,40.00
2017-11-15T09:18:01.126Z,45.10
2017-11-15T09:19:03.607Z,42.75
2017-11-15T09:20:06.238Z,44.70
2017-11-15T09:21:08.714Z,43.92
2017-11-15T09:22:11.178Z,38.78
2017-11-15T09:23:13.655Z,43.80
2017-11-15T09:24:16.124Z,39.03
2017-11-15T09:25:19.380Z,42.42
2017-11-15T09:26:21.859Z,42.25
2017-11-15T09:27:24.348Z,53.15
2017-11-15T09:28:29.356Z,39.90
2017-11-15T09:29:31.844Z,42.25
2017-11-15T09:30:34.308Z,41.80
2017-11-15T09:31:36.887Z,37.15
2017-11-15T09:32:39.372Z,38.50
2017-11-15T09:33:41.948Z,35.65
2017-11-15T09:34:44.438Z,46.22
2017-11-15T09:35:47.712Z,41.05
2017-11-15T09:36:50.187Z,38.08
2017-11-15T09:37:52.660Z,39.40
2017-11-15T09:38:55.194Z,40.45
2017-11-15T09:39:58.166Z,41.80
2017-11-15T09:41:03.455Z,36.65
2017-11-15T09:42:06.020Z,41.88
2017-11-15T09:43:09.288Z,41.67
2017-11-15T09:44:11.760Z,37.03
2017-11-15T09:45:14.228Z,35.70
2017-11-15T09:46:16.710Z,39.08
2017-11-15T09:47:19.218Z,46.33
2017-11-15T09:48:21.728Z,38.38
2017-11-15T09:49:24.191Z,38.20
2017-11-15T09:50:27.423Z,42.97
2017-11-15T09:51:29.901Z,37.70
2017-11-15T09:52:32.398Z,39.63
2017-11-15T09:53:35.635Z,37.65
2017-11-15T09:54:38.102Z,40.97
2017-11-15T09:55:40.610Z,31.20
2017-11-15T09:56:44.424Z,34.85
2017-11-15T09:57:46.903Z,43.28
2017-11-15T09:58:49.360Z,31.70
2017-11-15T09:59:51.935Z,38.33
2017-11-15T10:00:55.183Z,40.85
2017-11-15T10:01:57.654Z,37.20
2017-11-15T10:03:00.112Z,36.53
2017-11-15T10:04:03.338Z,36.38
2017-11-15T10:05:05.853Z,42.45
2017-11-15T10:06:08.303Z,35.25
2017-11-15T10:07:11.535Z,38.53
2017-11-15T10:08:13.991Z,33.30
2017-11-15T10:09:17.215Z,36.90
2017-11-15T10:10:20.469Z,38.17
2017-11-15T10:11:23.699Z,38.05
2017-11-15T10:12:26.931Z,44.30
2017-11-15T10:13:29.387Z,36.72
2017-11-15T10:14:31.872Z,36.00
2017-11-15T10:15:34.381Z,36.90
2017-11-15T10:16:39.472Z,39.67
2017-11-15T10:17:41.944Z,41.13
2017-11-15T10:18:44.432Z,41.60
2017-11-15T10:19:46.999Z,42.70
2017-11-15T10:20:50.346Z,35.28
2017-11-15T10:21:52.823Z,37.70
2017-11-15T10:22:55.281Z,40.75
2017-11-15T10:23:58.511Z,36.78
2017-11-15T10:25:01.751Z,40.12
2017-11-15T10:26:05.014Z,43.20
2017-11-15T10:27:07.493Z,46.13
2017-11-15T10:28:09.963Z,49.17
2017-11-15T10:29:12.510Z,36.83
2017-11-15T10:30:15.499Z,39.45
2017-11-15T10:31:17.971Z,41.42
2017-11-15T10:32:20.430Z,48.20
2017-11-15T10:33:22.907Z,48.50
2017-11-15T10:34:25.391Z,44.63
2017-11-15T10:35:27.855Z,46.95
2017-11-15T10:36:30.318Z,40.47
2017-11-15T10:37:32.808Z,47.88
2017-11-15T10:38:35.293Z,48.13
2017-11-15T10:39:37.769Z,47.33
2017-11-15T10:40:40.230Z,46.10
2017-11-15T10:41:43.311Z,60.92
2017-11-15T10:42:46.579Z,41.85
2017-11-15T10:43:49.051Z,39.00
2017-11-15T10:44:51.507Z,39.20
2017-11-15T10:45:53.970Z,48.13
2017-11-15T10:46:56.444Z,57.88
2017-11-15T10:47:59.700Z,38.38
2017-11-15T10:49:02.167Z,49.63
2017-11-15T10:50:04.647Z,35.28
2017-11-15T10:51:07.288Z,40.88
2017-11-15T10:52:09.751Z,44.45
2017-11-15T10:53:12.223Z,42.67
2017-11-15T10:54:14.680Z,38.70
2017-11-15T10:55:17.161Z,36.25
2017-11-15T10:56:20.416Z,43.92
2017-11-15T10:57:22.882Z,36.50
2017-11-15T10:58:25.378Z,42.03
2017-11-15T10:59:27.872Z,41.55
2017-11-15T11:00:36.932Z,36.17
2017-11-15T11:01:39.388Z,42.00
2017-11-15T11:02:43.841Z,34.20
2017-11-15T11:03:46.339Z,38.10
2017-11-15T11:04:49.696Z,40.58
2017-11-15T11:05:52.360Z,35.25
2017-11-15T11:06:54.891Z,36.67
2017-11-15T11:07:58.232Z,37.05
2017-11-15T11:09:00.951Z,42.45
2017-11-15T11:10:05.670Z,45.00
2017-11-15T11:11:08.330Z,40.15
2017-11-15T11:12:11.728Z,43.17
2017-11-15T11:13:14.323Z,37.58
2017-11-15T11:14:17.948Z,37.15
2017-11-15T11:15:21.619Z,35.28
2017-11-15T11:16:27.110Z,36.17
2017-11-15T11:17:30.198Z,33.78
2017-11-15T11:18:32.763Z,38.13
2017-11-15T11:19:36.866Z,37.05
2017-11-15T11:20:39.352Z,35.38
2017-11-15T11:21:41.918Z,36.88
2017-11-15T11:22:44.386Z,38.63
2017-11-15T11:23:46.906Z,40.45
2017-11-15T11:24:49.354Z,36.03
2017-11-15T11:25:51.840Z,33.35
2017-11-15T11:26:54.299Z,33.10
2017-11-15T11:27:56.762Z,34.25
2017-11-15T11:28:59.295Z,43.80
2017-11-15T11:30:01.758Z,34.05
2017-11-15T11:31:04.200Z,35.53
2017-11-15T11:32:06.668Z,34.05
2017-11-15T11:33:09.163Z,39.95
2017-11-15T11:34:11.633Z,34.58
2017-11-15T11:35:14.141Z,33.13
2017-11-15T11:36:16.604Z,32.95
2017-11-15T11:37:19.087Z,30.58
2017-11-15T11:38:21.590Z,35.38
2017-11-15T11:39:24.051Z,38.85
2017-11-15T11:40:26.516Z,39.42
2017-11-15T11:41:28.968Z,36.00
2017-11-15T11:42:32.203Z,41.00
2017-11-15T11:43:34.765Z,36.97
2017-11-15T11:44:37.232Z,32.28
2017-11-15T11:45:39.720Z,33.00
2017-11-15T11:46:42.188Z,32.60
2017-11-15T11:47:50.341Z,37.88
2017-11-15T11:48:52.841Z,36.45
2017-11-15T11:49:55.326Z,33.63
2017-11-15T11:50:58.574Z,31.33
2017-11-15T11:52:01.118Z,39.85
2017-11-15T11:53:03.591Z,32.95
2017-11-15T11:54:06.078Z,29.87
2017-11-15T11:55:08.594Z,32.10
2017-11-15T11:56:11.074Z,31.00
2017-11-15T11:57:13.547Z,33.28
2017-11-15T11:58:16.048Z,34.80
2017-11-15T11:59:19.184Z,31.42
2017-11-15T12:00:21.682Z,31.17
2017-11-15T12:01:24.968Z,29.35
2017-11-15T12:02:27.441Z,39.45
2017-11-15T12:03:29.916Z,29.08
2017-11-15T12:04:32.375Z,33.40
2017-11-15T12:05:34.983Z,32.60
2017-11-15T12:06:37.460Z,31.42
2017-11-15T12:07:39.941Z,30.98
2017-11-15T12:08:42.388Z,29.75
2017-11-15T12:09:44.953Z,31.40
2017-11-15T12:10:48.187Z,38.83
2017-11-15T12:11:51.451Z,32.35
2017-11-15T12:12:53.962Z,39.05
2017-11-15T12:13:57.185Z,34.40
2017-11-15T12:14:59.719Z,39.42
2017-11-15T12:16:02.947Z,40.33
2017-11-15T12:17:05.407Z,35.80
2017-11-15T12:18:07.869Z,34.97
2017-11-15T12:19:10.360Z,44.80
2017-11-15T12:20:12.878Z,36.65
2017-11-15T12:21:16.104Z,53.17
2017-11-15T12:22:19.427Z,38.17
2017-11-15T12:23:21.896Z,42.58
2017-11-15T12:24:24.357Z,37.13
2017-11-15T12:25:26.844Z,39.55
2017-11-15T12:26:29.318Z,38.17
2017-11-15T12:27:31.782Z,40.75
2017-11-15T12:28:35.043Z,39.30
2017-11-15T12:29:37.509Z,41.10
2017-11-15T12:30:39.999Z,44.30
2017-11-15T12:31:42.459Z,33.88
2017-11-15T12:32:44.955Z,43.08
2017-11-15T12:33:47.415Z,37.45
2017-11-15T12:34:49.905Z,31.58
2017-11-15T12:35:52.397Z,32.60
2017-11-15T12:36:55.623Z,32.97
2017-11-15T12:37:58.093Z,31.45
2017-11-15T12:39:00.578Z,31.77
2017-11-15T12:40:03.827Z,34.03
2017-11-15T12:41:06.319Z,28.75
2017-11-15T12:42:08.899Z,31.98
2017-11-15T12:43:12.114Z,36.47
2017-11-15T12:44:15.345Z,35.80
2017-11-15T12:45:17.803Z,35.88
2017-11-15T12:46:20.284Z,32.85
2017-11-15T12:47:23.524Z,32.80
2017-11-15T12:48:25.984Z,37.38
2017-11-15T12:49:29.225Z,36.45
2017-11-15T12:50:32.481Z,35.00
2017-11-15T12:51:34.995Z,35.58
2017-11-15T12:52:38.383Z,35.92
2017-11-15T12:53:40.845Z,37.47
2017-11-15T12:54:43.310Z,31.85
2017-11-15T12:55:45.807Z,32.88
2017-11-15T12:56:49.031Z,30.00
2017-11-15T12:57:51.496Z,31.52
2017-11-15T12:58:54.029Z,36.20
2017-11-15T12:59:56.496Z,38.85
2017-11-15T13:00:58.981Z,28.55
2017-11-15T13:02:01.446Z,32.47
2017-11-15T13:03:03.917Z,30.85
2017-11-15T13:04:07.156Z,27.62
2017-11-15T13:05:09.619Z,36.42
2017-11-15T13:06:12.124Z,31.27
2017-11-15T13:07:14.587Z,41.00
2017-11-15T13:08:17.164Z,31.92
2017-11-15T13:09:19.640Z,39.42
2017-11-15T13:10:22.088Z,33.55
2017-11-15T13:11:25.375Z,32.88
2017-11-15T13:12:27.836Z,32.83
2017-11-15T13:13:30.304Z,30.33
2017-11-15T13:14:32.800Z,30.75
2017-11-15T13:15:36.044Z,37.85
2017-11-15T13:16:38.543Z,34.13
2017-11-15T13:17:41.034Z,36.47
2017-11-15T13:18:43.595Z,35.67
2017-11-15T13:19:46.039Z,32.92
2017-11-15T13:20:48.500Z,35.35
2017-11-15T13:21:50.968Z,37.25
2017-11-15T13:22:53.857Z,34.05
2017-11-15T13:23:56.377Z,31.25
2017-11-15T13:24:58.851Z,32.53
2017-11-15T13:26:01.311Z,32.80
2017-11-15T13:27:03.779Z,33.80
2017-11-15T13:28:06.289Z,35.35